sensor_id;sensor_type;location;lat;lon;timestamp;temperature;humidity
23507;DHT22;11930;53.076;18.250;2023-05-21T00:01:51;11.10;99.90
23507;DHT22;11930;53.076;18.250;2023-05-21T00:04:18;11.10;99.90
23507;DHT22;11930;53.076;18.250;2023-05-21T00:06:44;11.00;99.90
23507;DHT22;11930;53.076;18.250;2023-05-21T00:09:10;11.00;99.90
23507;DHT22;11930;53.076;18.250;2023-05-21T00:11:37;11.00;99.90
23507;DHT22;11930;53.076;18.250;2023-05-21T00:14:03;10.90;99.90
23507;DHT22;11930;53.076;18.250;2023-05-21T00:16:29;10.90;99.90
23507;DHT22;11930;53.076;18.250;2023-05-21T00:18:55;10.90;99.90
23507;DHT22;11930;53.076;18.250;2023-05-21T00:21:22;10.80;99.90
23507;DHT22;11930;53.076;18.250;2023-05-21T00:23:51;10.80;99.90
23507;DHT22;11930;53.076;18.250;2023-05-21T00:26:22;10.80;99.90
23507;DHT22;11930;53.076;18.250;2023-05-21T00:31:21;10.80;99.90
23507;DHT22;11930;53.076;18.250;2023-05-21T00:33:47;10.70;99.90
23507;DHT22;11930;53.076;18.250;2023-05-21T00:36:13;10.70;99.90
23507;DHT22;11930;53.076;18.250;2023-05-21T00:38:40;10.60;99.90
23507;DHT22;11930;53.076;18.250;2023-05-21T00:41:11;10.70;99.90
23507;DHT22;11930;53.076;18.250;2023-05-21T00:43:37;10.60;99.90
23507;DHT22;11930;53.076;18.250;2023-05-21T00:46:08;10.60;99.90
23507;DHT22;11930;53.076;18.250;2023-05-21T00:48:38;10.60;99.90
23507;DHT22;11930;53.076;18.250;2023-05-21T00:51:05;10.50;99.90
23507;DHT22;11930;53.076;18.250;2023-05-21T00:53:31;10.50;99.90
23507;DHT22;11930;53.076;18.250;2023-05-21T00:56:00;10.40;99.90
23507;DHT22;11930;53.076;18.250;2023-05-21T00:58:27;10.40;99.90
23507;DHT22;11930;53.076;18.250;2023-05-21T01:00:54;10.40;99.90
23507;DHT22;11930;53.076;18.250;2023-05-21T01:03:22;10.40;99.90
23507;DHT22;11930;53.076;18.250;2023-05-21T01:05:51;10.40;99.90
23507;DHT22;11930;53.076;18.250;2023-05-21T01:08:25;10.30;99.90
23507;DHT22;11930;53.076;18.250;2023-05-21T01:10:53;10.30;99.90
23507;DHT22;11930;53.076;18.250;2023-05-21T01:13:20;10.20;99.90
23507;DHT22;11930;53.076;18.250;2023-05-21T01:15:49;10.20;99.90
23507;DHT22;11930;53.076;18.250;2023-05-21T01:18:15;10.20;99.90
23507;DHT22;11930;53.076;18.250;2023-05-21T01:20:41;10.10;99.90
23507;DHT22;11930;53.076;18.250;2023-05-21T01:23:18;10.00;99.90
23507;DHT22;11930;53.076;18.250;2023-05-21T01:25:45;10.00;99.90
23507;DHT22;11930;53.076;18.250;2023-05-21T01:28:11;10.00;99.90
23507;DHT22;11930;53.076;18.250;2023-05-21T01:30:40;10.00;99.90
23507;DHT22;11930;53.076;18.250;2023-05-21T01:33:23;10.00;99.90
23507;DHT22;11930;53.076;18.250;2023-05-21T01:38:32;10.00;99.90
23507;DHT22;11930;53.076;18.250;2023-05-21T01:41:06;10.00;99.90
23507;DHT22;11930;53.076;18.250;2023-05-21T01:43:38;9.90;99.90
23507;DHT22;11930;53.076;18.250;2023-05-21T01:46:09;9.90;99.90
23507;DHT22;11930;53.076;18.250;2023-05-21T01:48:35;9.80;99.90
23507;DHT22;11930;53.076;18.250;2023-05-21T01:51:04;9.80;99.90
23507;DHT22;11930;53.076;18.250;2023-05-21T01:53:31;9.80;99.90
23507;DHT22;11930;53.076;18.250;2023-05-21T01:55:57;9.60;99.90
23507;DHT22;11930;53.076;18.250;2023-05-21T01:58:24;9.70;99.90
23507;DHT22;11930;53.076;18.250;2023-05-21T02:00:50;9.70;99.90
23507;DHT22;11930;53.076;18.250;2023-05-21T02:03:19;9.70;99.90
23507;DHT22;11930;53.076;18.250;2023-05-21T02:05:46;9.70;99.90
23507;DHT22;11930;53.076;18.250;2023-05-21T02:08:12;9.60;99.90
23507;DHT22;11930;53.076;18.250;2023-05-21T02:10:40;9.50;99.90
23507;DHT22;11930;53.076;18.250;2023-05-21T02:13:06;9.50;99.90
23507;DHT22;11930;53.076;18.250;2023-05-21T02:15:32;9.50;99.90
23507;DHT22;11930;53.076;18.250;2023-05-21T02:18:00;9.40;99.90
23507;DHT22;11930;53.076;18.250;2023-05-21T02:20:27;9.40;99.90
23507;DHT22;11930;53.076;18.250;2023-05-21T02:22:53;9.50;99.90
23507;DHT22;11930;53.076;18.250;2023-05-21T02:25:19;9.40;99.90
23507;DHT22;11930;53.076;18.250;2023-05-21T02:27:45;9.50;99.90
23507;DHT22;11930;53.076;18.250;2023-05-21T02:30:13;9.40;99.90
23507;DHT22;11930;53.076;18.250;2023-05-21T02:32:40;9.50;99.90
23507;DHT22;11930;53.076;18.250;2023-05-21T02:35:08;9.40;99.90
23507;DHT22;11930;53.076;18.250;2023-05-21T02:37:35;9.40;99.90
23507;DHT22;11930;53.076;18.250;2023-05-21T02:40:02;9.30;99.90
23507;DHT22;11930;53.076;18.250;2023-05-21T02:42:31;9.30;99.90
23507;DHT22;11930;53.076;18.250;2023-05-21T02:44:57;9.30;99.90
23507;DHT22;11930;53.076;18.250;2023-05-21T02:47:23;9.30;99.90
23507;DHT22;11930;53.076;18.250;2023-05-21T02:49:51;9.30;99.90
23507;DHT22;11930;53.076;18.250;2023-05-21T02:52:18;9.30;99.90
23507;DHT22;11930;53.076;18.250;2023-05-21T02:54:45;9.20;99.90
23507;DHT22;11930;53.076;18.250;2023-05-21T02:57:12;9.20;99.90
23507;DHT22;11930;53.076;18.250;2023-05-21T02:59:38;9.20;99.90
23507;DHT22;11930;53.076;18.250;2023-05-21T03:02:05;9.20;99.90
23507;DHT22;11930;53.076;18.250;2023-05-21T03:04:31;9.20;99.90
23507;DHT22;11930;53.076;18.250;2023-05-21T03:06:58;9.20;99.90
23507;DHT22;11930;53.076;18.250;2023-05-21T03:09:27;9.20;99.90
23507;DHT22;11930;53.076;18.250;2023-05-21T03:14:22;9.30;99.90
23507;DHT22;11930;53.076;18.250;2023-05-21T03:16:49;9.30;99.90
23507;DHT22;11930;53.076;18.250;2023-05-21T03:19:17;9.40;99.90
23507;DHT22;11930;53.076;18.250;2023-05-21T03:21:43;9.40;99.90
23507;DHT22;11930;53.076;18.250;2023-05-21T03:24:10;9.50;99.90
23507;DHT22;11930;53.076;18.250;2023-05-21T03:26:38;9.60;99.90
23507;DHT22;11930;53.076;18.250;2023-05-21T03:29:04;9.60;99.90
23507;DHT22;11930;53.076;18.250;2023-05-21T03:31:32;9.60;99.90
23507;DHT22;11930;53.076;18.250;2023-05-21T03:34:12;9.70;99.90
23507;DHT22;11930;53.076;18.250;2023-05-21T03:36:38;9.80;99.90
23507;DHT22;11930;53.076;18.250;2023-05-21T03:39:04;9.90;99.90
23507;DHT22;11930;53.076;18.250;2023-05-21T03:41:32;9.90;99.90
23507;DHT22;11930;53.076;18.250;2023-05-21T03:44:06;10.00;99.90
23507;DHT22;11930;53.076;18.250;2023-05-21T03:46:44;10.10;99.90
23507;DHT22;11930;53.076;18.250;2023-05-21T03:49:19;10.30;99.90
23507;DHT22;11930;53.076;18.250;2023-05-21T03:51:47;10.50;99.90
23507;DHT22;11930;53.076;18.250;2023-05-21T03:54:16;10.80;99.90
23507;DHT22;11930;53.076;18.250;2023-05-21T03:56:42;11.30;99.90
23507;DHT22;11930;53.076;18.250;2023-05-21T03:59:08;11.50;99.90
23507;DHT22;11930;53.076;18.250;2023-05-21T04:01:35;12.20;99.90
23507;DHT22;11930;53.076;18.250;2023-05-21T04:04:01;12.70;99.90
23507;DHT22;11930;53.076;18.250;2023-05-21T04:06:28;13.30;99.90
23507;DHT22;11930;53.076;18.250;2023-05-21T04:08:55;13.90;99.90
23507;DHT22;11930;53.076;18.250;2023-05-21T04:11:21;14.60;99.90
23507;DHT22;11930;53.076;18.250;2023-05-21T04:13:47;15.30;99.90
23507;DHT22;11930;53.076;18.250;2023-05-21T04:16:13;16.00;99.90
23507;DHT22;11930;53.076;18.250;2023-05-21T04:18:45;17.50;99.90
23507;DHT22;11930;53.076;18.250;2023-05-21T04:21:11;17.50;99.90
23507;DHT22;11930;53.076;18.250;2023-05-21T04:23:38;18.10;99.90
23507;DHT22;11930;53.076;18.250;2023-05-21T04:26:11;18.60;99.90
23507;DHT22;11930;53.076;18.250;2023-05-21T04:28:39;18.90;99.90
23507;DHT22;11930;53.076;18.250;2023-05-21T04:31:07;19.20;99.90
23507;DHT22;11930;53.076;18.250;2023-05-21T04:33:34;19.60;99.90
23507;DHT22;11930;53.076;18.250;2023-05-21T04:36:00;19.80;99.90
23507;DHT22;11930;53.076;18.250;2023-05-21T04:38:26;20.00;99.90
23507;DHT22;11930;53.076;18.250;2023-05-21T04:40:52;20.20;99.90
23507;DHT22;11930;53.076;18.250;2023-05-21T04:43:20;20.20;99.90
23507;DHT22;11930;53.076;18.250;2023-05-21T04:45:53;20.10;99.90
23507;DHT22;11930;53.076;18.250;2023-05-21T04:48:21;19.80;99.90
23507;DHT22;11930;53.076;18.250;2023-05-21T04:50:51;19.60;99.90
23507;DHT22;11930;53.076;18.250;2023-05-21T04:53:18;19.40;99.90
23507;DHT22;11930;53.076;18.250;2023-05-21T04:55:44;19.20;99.90
23507;DHT22;11930;53.076;18.250;2023-05-21T04:58:12;19.10;99.90
23507;DHT22;11930;53.076;18.250;2023-05-21T05:00:39;19.10;99.90
23507;DHT22;11930;53.076;18.250;2023-05-21T05:03:07;19.20;99.90
23507;DHT22;11930;53.076;18.250;2023-05-21T05:05:33;19.40;99.90
23507;DHT22;11930;53.076;18.250;2023-05-21T05:07:59;19.40;99.90
23507;DHT22;11930;53.076;18.250;2023-05-21T05:10:25;19.40;99.90
23507;DHT22;11930;53.076;18.250;2023-05-21T05:12:54;19.40;99.90
23507;DHT22;11930;53.076;18.250;2023-05-21T05:15:20;19.50;99.90
23507;DHT22;11930;53.076;18.250;2023-05-21T05:17:47;19.70;99.90
23507;DHT22;11930;53.076;18.250;2023-05-21T05:20:15;19.80;99.90
23507;DHT22;11930;53.076;18.250;2023-05-21T05:22:41;19.90;99.90
23507;DHT22;11930;53.076;18.250;2023-05-21T05:25:07;20.00;99.90
23507;DHT22;11930;53.076;18.250;2023-05-21T05:27:34;20.00;99.90
23507;DHT22;11930;53.076;18.250;2023-05-21T05:30:00;19.90;99.90
23507;DHT22;11930;53.076;18.250;2023-05-21T05:32:26;20.00;99.90
23507;DHT22;11930;53.076;18.250;2023-05-21T05:34:52;20.00;99.90
23507;DHT22;11930;53.076;18.250;2023-05-21T05:37:18;20.10;99.90
23507;DHT22;11930;53.076;18.250;2023-05-21T05:39:44;20.20;99.90
23507;DHT22;11930;53.076;18.250;2023-05-21T05:42:10;20.30;99.90
23507;DHT22;11930;53.076;18.250;2023-05-21T05:44:36;20.40;99.90
23507;DHT22;11930;53.076;18.250;2023-05-21T05:47:02;20.60;99.90
23507;DHT22;11930;53.076;18.250;2023-05-21T05:49:28;20.80;99.90
23507;DHT22;11930;53.076;18.250;2023-05-21T05:51:54;20.90;99.30
23507;DHT22;11930;53.076;18.250;2023-05-21T05:54:21;20.80;99.40
23507;DHT22;11930;53.076;18.250;2023-05-21T05:56:47;20.90;97.60
23507;DHT22;11930;53.076;18.250;2023-05-21T05:59:14;20.80;97.20
23507;DHT22;11930;53.076;18.250;2023-05-21T06:01:46;20.60;96.90
23507;DHT22;11930;53.076;18.250;2023-05-21T06:04:12;20.50;97.90
23507;DHT22;11930;53.076;18.250;2023-05-21T06:06:38;20.40;97.80
23507;DHT22;11930;53.076;18.250;2023-05-21T06:09:04;20.30;97.20
23507;DHT22;11930;53.076;18.250;2023-05-21T06:11:30;20.10;97.80
23507;DHT22;11930;53.076;18.250;2023-05-21T06:13:56;20.00;97.30
23507;DHT22;11930;53.076;18.250;2023-05-21T06:16:27;20.00;97.80
23507;DHT22;11930;53.076;18.250;2023-05-21T06:18:53;20.00;96.90
23507;DHT22;11930;53.076;18.250;2023-05-21T06:21:19;20.00;97.90
23507;DHT22;11930;53.076;18.250;2023-05-21T06:23:46;19.90;97.70
23507;DHT22;11930;53.076;18.250;2023-05-21T06:26:12;20.00;97.90
23507;DHT22;11930;53.076;18.250;2023-05-21T06:28:39;19.90;97.20
23507;DHT22;11930;53.076;18.250;2023-05-21T06:31:07;19.80;95.00
23507;DHT22;11930;53.076;18.250;2023-05-21T06:33:35;19.80;95.70
23507;DHT22;11930;53.076;18.250;2023-05-21T06:36:01;19.80;95.70
23507;DHT22;11930;53.076;18.250;2023-05-21T06:38:27;19.70;95.50
23507;DHT22;11930;53.076;18.250;2023-05-21T06:40:53;19.70;96.20
23507;DHT22;11930;53.076;18.250;2023-05-21T06:43:45;19.80;96.70
23507;DHT22;11930;53.076;18.250;2023-05-21T06:46:30;19.80;97.70
23507;DHT22;11930;53.076;18.250;2023-05-21T06:48:57;20.00;96.80
23507;DHT22;11930;53.076;18.250;2023-05-21T06:51:23;20.20;93.40
23507;DHT22;11930;53.076;18.250;2023-05-21T06:53:49;20.20;93.40
23507;DHT22;11930;53.076;18.250;2023-05-21T06:56:17;20.30;92.40
23507;DHT22;11930;53.076;18.250;2023-05-21T06:58:43;20.30;93.70
23507;DHT22;11930;53.076;18.250;2023-05-21T07:01:09;20.50;90.70
23507;DHT22;11930;53.076;18.250;2023-05-21T07:03:36;20.60;91.00
23507;DHT22;11930;53.076;18.250;2023-05-21T07:06:02;20.80;90.90
23507;DHT22;11930;53.076;18.250;2023-05-21T07:08:28;20.90;87.00
23507;DHT22;11930;53.076;18.250;2023-05-21T07:10:56;21.10;88.30
23507;DHT22;11930;53.076;18.250;2023-05-21T07:13:22;21.30;82.10
23507;DHT22;11930;53.076;18.250;2023-05-21T07:15:48;21.50;84.50
23507;DHT22;11930;53.076;18.250;2023-05-21T07:18:14;21.70;79.90
23507;DHT22;11930;53.076;18.250;2023-05-21T07:20:42;21.80;77.40
23507;DHT22;11930;53.076;18.250;2023-05-21T07:25:38;22.10;73.90
23507;DHT22;11930;53.076;18.250;2023-05-21T07:28:04;22.40;70.10
23507;DHT22;11930;53.076;18.250;2023-05-21T07:30:30;22.40;70.90
23507;DHT22;11930;53.076;18.250;2023-05-21T07:32:57;22.70;69.20
23507;DHT22;11930;53.076;18.250;2023-05-21T07:35:23;22.80;68.90
23507;DHT22;11930;53.076;18.250;2023-05-21T07:37:49;22.80;68.50
23507;DHT22;11930;53.076;18.250;2023-05-21T07:40:16;22.90;66.60
23507;DHT22;11930;53.076;18.250;2023-05-21T07:42:42;23.00;67.10
23507;DHT22;11930;53.076;18.250;2023-05-21T07:45:11;23.10;63.80
23507;DHT22;11930;53.076;18.250;2023-05-21T07:47:41;23.10;65.20
23507;DHT22;11930;53.076;18.250;2023-05-21T07:50:07;23.20;63.40
23507;DHT22;11930;53.076;18.250;2023-05-21T07:52:34;23.30;61.90
23507;DHT22;11930;53.076;18.250;2023-05-21T07:55:00;23.20;62.60
23507;DHT22;11930;53.076;18.250;2023-05-21T07:57:27;23.30;62.60
23507;DHT22;11930;53.076;18.250;2023-05-21T08:00:02;23.50;62.20
23507;DHT22;11930;53.076;18.250;2023-05-21T08:02:30;23.60;60.80
23507;DHT22;11930;53.076;18.250;2023-05-21T08:04:56;23.70;59.60
23507;DHT22;11930;53.076;18.250;2023-05-21T08:07:23;23.80;59.70
23507;DHT22;11930;53.076;18.250;2023-05-21T08:09:50;23.90;58.90
23507;DHT22;11930;53.076;18.250;2023-05-21T08:12:16;24.10;58.90
23507;DHT22;11930;53.076;18.250;2023-05-21T08:14:44;24.10;56.20
23507;DHT22;11930;53.076;18.250;2023-05-21T08:17:13;23.80;55.40
23507;DHT22;11930;53.076;18.250;2023-05-21T08:19:39;23.70;55.70
23507;DHT22;11930;53.076;18.250;2023-05-21T08:22:06;23.70;56.70
23507;DHT22;11930;53.076;18.250;2023-05-21T08:24:34;23.70;54.20
23507;DHT22;11930;53.076;18.250;2023-05-21T08:27:00;23.70;54.70
23507;DHT22;11930;53.076;18.250;2023-05-21T08:29:29;23.80;54.70
23507;DHT22;11930;53.076;18.250;2023-05-21T08:31:55;23.90;53.40
23507;DHT22;11930;53.076;18.250;2023-05-21T08:34:22;24.00;55.20
23507;DHT22;11930;53.076;18.250;2023-05-21T08:36:59;24.20;54.70
23507;DHT22;11930;53.076;18.250;2023-05-21T08:39:44;24.40;54.20
23507;DHT22;11930;53.076;18.250;2023-05-21T08:44:58;24.70;52.60
23507;DHT22;11930;53.076;18.250;2023-05-21T08:47:26;24.80;51.60
23507;DHT22;11930;53.076;18.250;2023-05-21T08:49:56;24.60;53.30
23507;DHT22;11930;53.076;18.250;2023-05-21T08:52:24;24.70;53.30
23507;DHT22;11930;53.076;18.250;2023-05-21T08:54:52;24.80;52.00
23507;DHT22;11930;53.076;18.250;2023-05-21T08:57:19;24.70;51.80
23507;DHT22;11930;53.076;18.250;2023-05-21T08:59:49;24.80;53.60
23507;DHT22;11930;53.076;18.250;2023-05-21T09:02:21;25.00;53.10
23507;DHT22;11930;53.076;18.250;2023-05-21T09:04:52;25.00;50.80
23507;DHT22;11930;53.076;18.250;2023-05-21T09:07:25;24.60;51.50
23507;DHT22;11930;53.076;18.250;2023-05-21T09:10:13;24.60;52.60
23507;DHT22;11930;53.076;18.250;2023-05-21T09:12:41;24.60;51.60
23507;DHT22;11930;53.076;18.250;2023-05-21T09:15:08;24.70;52.60
23507;DHT22;11930;53.076;18.250;2023-05-21T09:17:36;24.60;51.90
23507;DHT22;11930;53.076;18.250;2023-05-21T09:20:27;24.60;53.10
23507;DHT22;11930;53.076;18.250;2023-05-21T09:23:02;24.90;52.00
23507;DHT22;11930;53.076;18.250;2023-05-21T09:25:28;24.80;52.30
23507;DHT22;11930;53.076;18.250;2023-05-21T09:27:58;24.70;52.30
23507;DHT22;11930;53.076;18.250;2023-05-21T09:30:24;24.60;51.20
23507;DHT22;11930;53.076;18.250;2023-05-21T09:32:56;24.60;51.50
23507;DHT22;11930;53.076;18.250;2023-05-21T09:35:22;24.50;53.20
23507;DHT22;11930;53.076;18.250;2023-05-21T09:37:50;24.50;52.00
23507;DHT22;11930;53.076;18.250;2023-05-21T09:40:19;24.50;51.10
23507;DHT22;11930;53.076;18.250;2023-05-21T09:45:26;24.50;52.00
23507;DHT22;11930;53.076;18.250;2023-05-21T09:47:55;24.50;53.10
23507;DHT22;11930;53.076;18.250;2023-05-21T09:50:25;24.50;52.50
23507;DHT22;11930;53.076;18.250;2023-05-21T09:52:53;24.60;51.90
23507;DHT22;11930;53.076;18.250;2023-05-21T09:55:25;24.50;49.20
23507;DHT22;11930;53.076;18.250;2023-05-21T09:57:54;24.40;49.30
23507;DHT22;11930;53.076;18.250;2023-05-21T10:00:24;24.40;52.00
23507;DHT22;11930;53.076;18.250;2023-05-21T10:03:01;24.50;52.20
23507;DHT22;11930;53.076;18.250;2023-05-21T10:05:30;24.50;50.10
23507;DHT22;11930;53.076;18.250;2023-05-21T10:08:01;24.20;49.20
23507;DHT22;11930;53.076;18.250;2023-05-21T10:10:29;24.00;50.70
23507;DHT22;11930;53.076;18.250;2023-05-21T10:13:03;24.00;51.70
23507;DHT22;11930;53.076;18.250;2023-05-21T10:15:37;24.10;52.00
23507;DHT22;11930;53.076;18.250;2023-05-21T10:18:05;24.10;52.00
23507;DHT22;11930;53.076;18.250;2023-05-21T10:20:32;24.20;52.30
23507;DHT22;11930;53.076;18.250;2023-05-21T10:22:58;24.20;51.10
23507;DHT22;11930;53.076;18.250;2023-05-21T10:25:25;24.30;51.80
23507;DHT22;11930;53.076;18.250;2023-05-21T10:27:53;24.50;52.50
23507;DHT22;11930;53.076;18.250;2023-05-21T10:30:20;24.50;50.60
23507;DHT22;11930;53.076;18.250;2023-05-21T10:32:49;24.50;51.20
23507;DHT22;11930;53.076;18.250;2023-05-21T10:35:16;24.50;53.00
23507;DHT22;11930;53.076;18.250;2023-05-21T10:37:44;24.60;52.00
23507;DHT22;11930;53.076;18.250;2023-05-21T10:40:11;24.60;52.20
23507;DHT22;11930;53.076;18.250;2023-05-21T10:51:47;24.80;49.90
23507;DHT22;11930;53.076;18.250;2023-05-21T10:54:17;24.80;48.80
23507;DHT22;11930;53.076;18.250;2023-05-21T10:59:56;24.60;49.70
23507;DHT22;11930;53.076;18.250;2023-05-21T11:02:25;24.60;50.10
23507;DHT22;11930;53.076;18.250;2023-05-21T11:05:00;24.50;51.00
23507;DHT22;11930;53.076;18.250;2023-05-21T11:07:56;24.60;51.60
23507;DHT22;11930;53.076;18.250;2023-05-21T11:10:35;24.60;52.20
23507;DHT22;11930;53.076;18.250;2023-05-21T11:13:12;24.60;50.70
23507;DHT22;11930;53.076;18.250;2023-05-21T11:21:15;24.60;50.40
23507;DHT22;11930;53.076;18.250;2023-05-21T11:24:12;24.50;51.50
23507;DHT22;11930;53.076;18.250;2023-05-21T11:29:16;24.30;51.10
23507;DHT22;11930;53.076;18.250;2023-05-21T11:31:46;24.30;50.80
23507;DHT22;11930;53.076;18.250;2023-05-21T11:34:18;24.10;50.70
23507;DHT22;11930;53.076;18.250;2023-05-21T11:36:48;24.10;52.00
23507;DHT22;11930;53.076;18.250;2023-05-21T11:39:18;24.00;51.80
23507;DHT22;11930;53.076;18.250;2023-05-21T11:42:00;23.90;51.80
23507;DHT22;11930;53.076;18.250;2023-05-21T11:47:07;23.80;51.80
23507;DHT22;11930;53.076;18.250;2023-05-21T11:49:34;23.80;52.20
23507;DHT22;11930;53.076;18.250;2023-05-21T11:52:04;23.80;51.00
23507;DHT22;11930;53.076;18.250;2023-05-21T11:54:32;23.70;51.20
23507;DHT22;11930;53.076;18.250;2023-05-21T11:57:05;23.70;51.20
23507;DHT22;11930;53.076;18.250;2023-05-21T11:59:35;23.70;52.00
23507;DHT22;11930;53.076;18.250;2023-05-21T12:02:01;23.70;52.30
23507;DHT22;11930;53.076;18.250;2023-05-21T12:04:32;23.70;51.80
23507;DHT22;11930;53.076;18.250;2023-05-21T12:07:07;23.70;52.50
23507;DHT22;11930;53.076;18.250;2023-05-21T12:09:42;23.70;52.20
23507;DHT22;11930;53.076;18.250;2023-05-21T12:12:09;23.70;53.00
23507;DHT22;11930;53.076;18.250;2023-05-21T12:14:36;23.70;51.90
23507;DHT22;11930;53.076;18.250;2023-05-21T12:17:03;23.70;51.50
23507;DHT22;11930;53.076;18.250;2023-05-21T12:19:33;23.70;51.80
23507;DHT22;11930;53.076;18.250;2023-05-21T12:22:06;23.80;52.20
23507;DHT22;11930;53.076;18.250;2023-05-21T12:24:33;23.80;50.80
23507;DHT22;11930;53.076;18.250;2023-05-21T12:27:01;23.80;52.20
23507;DHT22;11930;53.076;18.250;2023-05-21T12:29:30;23.90;50.00
23507;DHT22;11930;53.076;18.250;2023-05-21T12:32:04;23.90;50.60
23507;DHT22;11930;53.076;18.250;2023-05-21T12:34:50;24.00;50.20
23507;DHT22;11930;53.076;18.250;2023-05-21T12:37:29;24.00;50.60
23507;DHT22;11930;53.076;18.250;2023-05-21T12:40:02;24.10;50.40
23507;DHT22;11930;53.076;18.250;2023-05-21T12:42:32;24.10;49.30
23507;DHT22;11930;53.076;18.250;2023-05-21T12:45:06;24.20;50.10
23507;DHT22;11930;53.076;18.250;2023-05-21T12:47:32;24.20;50.70
23507;DHT22;11930;53.076;18.250;2023-05-21T12:50:00;24.30;50.80
23507;DHT22;11930;53.076;18.250;2023-05-21T12:52:27;24.30;50.10
23507;DHT22;11930;53.076;18.250;2023-05-21T12:54:54;24.30;49.00
23507;DHT22;11930;53.076;18.250;2023-05-21T12:57:24;24.30;49.00
23507;DHT22;11930;53.076;18.250;2023-05-21T12:59:58;24.30;49.00
23507;DHT22;11930;53.076;18.250;2023-05-21T13:02:26;24.20;48.70
23507;DHT22;11930;53.076;18.250;2023-05-21T13:04:55;24.20;49.80
23507;DHT22;11930;53.076;18.250;2023-05-21T13:07:22;24.20;47.40
23507;DHT22;11930;53.076;18.250;2023-05-21T13:09:48;24.20;49.70
23507;DHT22;11930;53.076;18.250;2023-05-21T13:12:20;24.30;49.20
23507;DHT22;11930;53.076;18.250;2023-05-21T13:14:50;24.50;48.70
23507;DHT22;11930;53.076;18.250;2023-05-21T13:17:18;24.60;49.40
23507;DHT22;11930;53.076;18.250;2023-05-21T13:20:04;24.70;47.50
23507;DHT22;11930;53.076;18.250;2023-05-21T13:22:32;24.70;48.00
23507;DHT22;11930;53.076;18.250;2023-05-21T13:24:58;24.70;49.50
23507;DHT22;11930;53.076;18.250;2023-05-21T13:27:24;24.80;48.60
23507;DHT22;11930;53.076;18.250;2023-05-21T13:29:50;24.90;48.50
23507;DHT22;11930;53.076;18.250;2023-05-21T13:32:16;25.00;48.50
23507;DHT22;11930;53.076;18.250;2023-05-21T13:34:43;25.00;47.00
23507;DHT22;11930;53.076;18.250;2023-05-21T13:37:09;24.80;46.90
23507;DHT22;11930;53.076;18.250;2023-05-21T13:39:35;24.60;47.00
23507;DHT22;11930;53.076;18.250;2023-05-21T13:42:01;24.60;48.20
23507;DHT22;11930;53.076;18.250;2023-05-21T13:44:31;24.50;48.70
23507;DHT22;11930;53.076;18.250;2023-05-21T13:47:02;24.50;48.50
23507;DHT22;11930;53.076;18.250;2023-05-21T13:49:28;24.50;49.00
23507;DHT22;11930;53.076;18.250;2023-05-21T13:51:54;24.60;48.10
23507;DHT22;11930;53.076;18.250;2023-05-21T13:54:20;24.60;46.50
23507;DHT22;11930;53.076;18.250;2023-05-21T13:56:46;24.60;45.90
23507;DHT22;11930;53.076;18.250;2023-05-21T13:59:12;24.60;46.40
23507;DHT22;11930;53.076;18.250;2023-05-21T14:01:38;24.50;47.20
23507;DHT22;11930;53.076;18.250;2023-05-21T14:04:04;24.60;46.40
23507;DHT22;11930;53.076;18.250;2023-05-21T14:06:31;24.50;45.30
23507;DHT22;11930;53.076;18.250;2023-05-21T14:08:58;24.50;48.40
23507;DHT22;11930;53.076;18.250;2023-05-21T14:11:26;24.60;48.30
23507;DHT22;11930;53.076;18.250;2023-05-21T14:13:52;24.70;47.00
23507;DHT22;11930;53.076;18.250;2023-05-21T14:16:19;24.80;43.70
23507;DHT22;11930;53.076;18.250;2023-05-21T14:18:45;24.60;43.20
23507;DHT22;11930;53.076;18.250;2023-05-21T14:21:11;24.50;44.50
23507;DHT22;11930;53.076;18.250;2023-05-21T14:23:37;24.40;44.60
23507;DHT22;11930;53.076;18.250;2023-05-21T14:26:03;24.40;43.80
23507;DHT22;11930;53.076;18.250;2023-05-21T14:28:29;24.30;42.90
23507;DHT22;11930;53.076;18.250;2023-05-21T14:30:55;24.30;44.70
23507;DHT22;11930;53.076;18.250;2023-05-21T14:33:21;24.40;43.80
23507;DHT22;11930;53.076;18.250;2023-05-21T14:35:47;24.40;44.70
23507;DHT22;11930;53.076;18.250;2023-05-21T14:38:13;24.40;44.60
23507;DHT22;11930;53.076;18.250;2023-05-21T14:43:06;24.30;44.80
23507;DHT22;11930;53.076;18.250;2023-05-21T14:45:32;24.30;45.10
23507;DHT22;11930;53.076;18.250;2023-05-21T14:48:01;24.30;44.80
23507;DHT22;11930;53.076;18.250;2023-05-21T14:50:27;24.30;44.20
23507;DHT22;11930;53.076;18.250;2023-05-21T14:52:53;24.20;44.40
23507;DHT22;11930;53.076;18.250;2023-05-21T14:55:19;24.20;44.70
23507;DHT22;11930;53.076;18.250;2023-05-21T14:57:47;24.20;44.00
23507;DHT22;11930;53.076;18.250;2023-05-21T15:00:13;24.20;43.70
23507;DHT22;11930;53.076;18.250;2023-05-21T15:02:39;24.20;42.60
23507;DHT22;11930;53.076;18.250;2023-05-21T15:05:05;24.20;44.00
23507;DHT22;11930;53.076;18.250;2023-05-21T15:07:32;24.20;43.00
23507;DHT22;11930;53.076;18.250;2023-05-21T15:09:57;24.20;42.80
23507;DHT22;11930;53.076;18.250;2023-05-21T15:12:23;24.10;43.30
23507;DHT22;11930;53.076;18.250;2023-05-21T15:14:49;24.20;44.40
23507;DHT22;11930;53.076;18.250;2023-05-21T15:17:16;24.10;44.30
23507;DHT22;11930;53.076;18.250;2023-05-21T15:19:42;24.10;43.40
23507;DHT22;11930;53.076;18.250;2023-05-21T15:22:08;24.10;43.30
23507;DHT22;11930;53.076;18.250;2023-05-21T15:24:34;24.00;43.10
23507;DHT22;11930;53.076;18.250;2023-05-21T15:27:00;24.00;41.80
23507;DHT22;11930;53.076;18.250;2023-05-21T15:29:26;23.80;42.60
23507;DHT22;11930;53.076;18.250;2023-05-21T15:31:52;23.80;42.80
23507;DHT22;11930;53.076;18.250;2023-05-21T15:34:18;23.80;42.70
23507;DHT22;11930;53.076;18.250;2023-05-21T15:36:44;23.80;43.60
23507;DHT22;11930;53.076;18.250;2023-05-21T15:39:10;23.80;44.20
23507;DHT22;11930;53.076;18.250;2023-05-21T15:41:36;23.80;43.60
23507;DHT22;11930;53.076;18.250;2023-05-21T15:44:03;23.80;43.40
23507;DHT22;11930;53.076;18.250;2023-05-21T15:46:29;23.80;43.90
23507;DHT22;11930;53.076;18.250;2023-05-21T15:48:55;23.70;43.60
23507;DHT22;11930;53.076;18.250;2023-05-21T15:51:21;23.70;44.10
23507;DHT22;11930;53.076;18.250;2023-05-21T15:53:47;23.80;44.70
23507;DHT22;11930;53.076;18.250;2023-05-21T15:56:13;23.70;44.70
23507;DHT22;11930;53.076;18.250;2023-05-21T15:58:39;23.70;45.90
23507;DHT22;11930;53.076;18.250;2023-05-21T16:01:05;23.60;45.00
23507;DHT22;11930;53.076;18.250;2023-05-21T16:03:33;23.60;45.20
23507;DHT22;11930;53.076;18.250;2023-05-21T16:05:59;23.60;45.80